Time;durP1;ratioP1;P1;durP2;ratioP2;P2;SDS_P1;SDS_P2;PMS_P1;PMS_P2;Temp;Humidity;BMP_temperature;BMP_pressure;BME280_temperature;BME280_humidity;BME280_pressure;Samples;Min_cycle;Max_cycle;Signal;HPM_P1;HPM_P2
2022/07/13 00:01:30;;;;;;;;;;;;;;;;;;4936882;29;19919;-86
2022/07/13 00:03:56;;;;;;;;;;;;;;;;;;4936327;29;19926;-85
2022/07/13 00:06:21;;;;;;;;;;;;;;;;;;4949094;29;20378;-85
2022/07/13 00:08:47;;;;;;;;;;;;;;;;;;4935332;29;19939;-85
2022/07/13 00:11:12;;;;;;;;;;;;;;;;;;4941070;29;19922;-86
2022/07/13 00:13:37;;;;;;;;;;;;;;;;;;4944548;29;19966;-86
2022/07/13 00:16:03;;;;;;;;;;;;;;;;;;4926016;29;19911;-86
2022/07/13 00:18:28;;;;;;;;;;;;;;;;;;4924430;29;19919;-86
2022/07/13 00:20:53;;;;;;;;;;;;;;;;;;4940999;29;19923;-87
2022/07/13 00:23:19;;;;;;;;;;;;;;;;;;4944637;29;19915;-86
2022/07/13 00:25:44;;;;;;;;;;;;;;;;;;4951451;29;19919;-87
2022/07/13 00:28:10;;;;;;;;;;;;;;;;;;4955099;29;19922;-89
2022/07/13 00:30:35;;;;;;;;;;;;;;;;;;4933824;29;19911;-88
2022/07/13 00:33:01;;;;;;;;;;;;;;;;;;4930862;29;19923;-89
2022/07/13 00:35:26;;;;;;;;;;;;;;;;;;4931355;29;19915;-87
2022/07/13 00:37:54;;;;;;;;;;;;;;;;;;4946875;29;19919;-90
2022/07/13 00:40:20;;;;;;;;;;;;;;;;;;4913884;29;19915;-88
2022/07/13 00:42:45;;;;;;;;;;;;;;;;;;4944858;29;19926;-88
2022/07/13 00:45:11;;;;;;;;;;;;;;;;;;4917890;29;19997;-89
2022/07/13 00:47:36;;;;;;;;;;;;;;;;;;4951753;29;19986;-89
2022/07/13 00:50:06;;;;;;;;;;;;;;;;;;4951976;29;19915;-88
2022/07/13 00:52:31;;;;;;;;;;;;;;;;;;4947333;29;19966;-88
2022/07/13 00:54:57;;;;;;;;;;;;;;;;;;4956260;29;20369;-89
2022/07/13 00:57:23;;;;;;;;;;;;;;;;;;4951929;29;19938;-88
2022/07/13 00:59:48;;;;;;;;;;;;;;;;;;4950321;29;19990;-87
2022/07/13 01:02:14;;;;;;;;;;;;;;;;;;4946655;29;20364;-85
2022/07/13 01:04:39;;;;;;;;;;;;;;;;;;4953470;28;19903;-91
2022/07/13 01:07:07;;;;;;;;;;;;;;;;;;4961255;28;19903;-88
2022/07/13 01:09:32;;;;;;;;;;;;;;;;;;4977679;28;19934;-88
2022/07/13 01:11:58;;;;;;;;;;;;;;;;;;4962097;28;19946;-89
2022/07/13 01:14:24;;;;;;;;;;;;;;;;;;4977487;28;19907;-82
2022/07/13 01:16:49;;;;;;;;;;;;;;;;;;4950363;28;19918;-88
2022/07/13 01:19:15;;;;;;;;;;;;;;;;;;4942504;29;19971;-90
2022/07/13 01:21:40;;;;;;;;;;;;;;;;;;4953868;28;19911;-89
2022/07/13 01:24:06;;;;;;;;;;;;;;;;;;4936341;29;19915;-88
2022/07/13 01:26:31;;;;;;;;;;;;;;;;;;4930625;29;20002;-87
2022/07/13 01:28:57;;;;;;;;;;;;;;;;;;4924294;29;19919;-85
2022/07/13 01:31:22;;;;;;;;;;;;;;;;;;4924253;29;19915;-86
2022/07/13 01:33:50;;;;;;;;;;;;;;;;;;4947988;29;20359;-89
2022/07/13 01:36:16;;;;;;;;;;;;;;;;;;4934984;29;19921;-87
2022/07/13 01:38:41;;;;;;;;;;;;;;;;;;4933680;29;19903;-88
2022/07/13 01:41:07;;;;;;;;;;;;;;;;;;4939838;28;19907;-88
2022/07/13 01:43:33;;;;;;;;;;;;;;;;;;4941843;29;19907;-88
2022/07/13 01:45:59;;;;;;;;;;;;;;;;;;4942784;29;19978;-86
2022/07/13 01:48:24;;;;;;;;;;;;;;;;;;4942213;29;19931;-87
2022/07/13 01:50:50;;;;;;;;;;;;;;;;;;4941844;29;19919;-86
2022/07/13 01:53:15;;;;;;;;;;;;;;;;;;4941459;29;19919;-87
2022/07/13 01:55:41;;;;;;;;;;;;;;;;;;4941791;29;19915;-89
2022/07/13 01:58:06;;;;;;;;;;;;;;;;;;4949109;29;19920;-82
2022/07/13 02:00:32;;;;;;;;;;;;;;;;;;4927166;29;19922;-83
2022/07/13 02:02:57;;;;;;;;;;;;;;;;;;4927636;29;19919;-83
2022/07/13 02:05:26;;;;;;;;;;;;;;;;;;4930692;29;19912;-82
2022/07/13 02:07:51;;;;;;;;;;;;;;;;;;4932731;29;20026;-84
2022/07/13 02:10:17;;;;;;;;;;;;;;;;;;4948569;29;19915;-84
2022/07/13 02:12:42;;;;;;;;;;;;;;;;;;4943181;29;19939;-85
2022/07/13 02:15:08;;;;;;;;;;;;;;;;;;4943214;29;19922;-85
2022/07/13 02:17:33;;;;;;;;;;;;;;;;;;4923824;29;19915;-82
2022/07/13 02:19:58;;;;;;;;;;;;;;;;;;4940685;29;19966;-83
2022/07/13 02:22:24;;;;;;;;;;;;;;;;;;4925587;29;20235;-85
2022/07/13 02:24:49;;;;;;;;;;;;;;;;;;4936391;29;20338;-86
2022/07/13 02:27:14;;;;;;;;;;;;;;;;;;4937395;29;20345;-83
2022/07/13 02:29:40;;;;;;;;;;;;;;;;;;4937859;29;19922;-85
2022/07/13 02:32:06;;;;;;;;;;;;;;;;;;4954613;29;19915;-83
2022/07/13 02:34:31;;;;;;;;;;;;;;;;;;4921531;29;19914;-86
2022/07/13 02:36:56;;;;;;;;;;;;;;;;;;4923248;29;20018;-84
2022/07/13 02:39:22;;;;;;;;;;;;;;;;;;4954509;29;19938;-86
2022/07/13 02:41:47;;;;;;;;;;;;;;;;;;4923897;29;19926;-85
2022/07/13 02:44:13;;;;;;;;;;;;;;;;;;4918131;29;19922;-86
2022/07/13 02:46:39;;;;;;;;;;;;;;;;;;4917176;29;19958;-87
2022/07/13 02:49:04;;;;;;;;;;;;;;;;;;4932878;29;19918;-86
2022/07/13 02:51:30;;;;;;;;;;;;;;;;;;4920252;29;20394;-87
2022/07/13 02:53:55;;;;;;;;;;;;;;;;;;4919019;29;19915;-87
2022/07/13 02:56:22;;;;;;;;;;;;;;;;;;4935162;29;19922;-84
2022/07/13 02:58:48;;;;;;;;;;;;;;;;;;4947639;29;19914;-82
2022/07/13 03:01:13;;;;;;;;;;;;;;;;;;4948239;29;19919;-83
2022/07/13 03:03:39;;;;;;;;;;;;;;;;;;4942677;29;19934;-88
2022/07/13 03:06:04;;;;;;;;;;;;;;;;;;4942392;29;19915;-86
2022/07/13 03:08:30;;;;;;;;;;;;;;;;;;4939622;29;19915;-87
2022/07/13 03:10:55;;;;;;;;;;;;;;;;;;4939803;29;20013;-87
2022/07/13 03:13:21;;;;;;;;;;;;;;;;;;4941127;29;19903;-86
2022/07/13 03:15:46;;;;;;;;;;;;;;;;;;4963669;29;19982;-86
2022/07/13 03:18:12;;;;;;;;;;;;;;;;;;4942607;29;19914;-86
2022/07/13 03:20:37;;;;;;;;;;;;;;;;;;4954254;29;19946;-85
2022/07/13 03:23:03;;;;;;;;;;;;;;;;;;4937263;29;19918;-85
2022/07/13 03:25:29;;;;;;;;;;;;;;;;;;4920693;29;19926;-87
2022/07/13 03:27:55;;;;;;;;;;;;;;;;;;4936073;29;19914;-87
2022/07/13 03:30:20;;;;;;;;;;;;;;;;;;4953648;23;19915;-81
2022/07/13 03:32:46;;;;;;;;;;;;;;;;;;4974843;28;20004;-84
2022/07/13 03:35:11;;;;;;;;;;;;;;;;;;4992281;28;20288;-84
2022/07/13 03:37:38;;;;;;;;;;;;;;;;;;4992229;28;20001;-84
2022/07/13 03:40:03;;;;;;;;;;;;;;;;;;4975763;28;20016;-82
2022/07/13 03:42:29;;;;;;;;;;;;;;;;;;4991550;28;19925;-79
2022/07/13 03:44:54;;;;;;;;;;;;;;;;;;4992764;28;20377;-82
2022/07/13 03:47:20;;;;;;;;;;;;;;;;;;4959888;28;20263;-83
2022/07/13 03:49:45;;;;;;;;;;;;;;;;;;4960235;28;19970;-82
2022/07/13 03:52:10;;;;;;;;;;;;;;;;;;4990785;28;20399;-83
2022/07/13 03:54:36;;;;;;;;;;;;;;;;;;4959714;28;19917;-83
2022/07/13 03:57:02;;;;;;;;;;;;;;;;;;4959467;28;19914;-82
2022/07/13 03:59:28;;;;;;;;;;;;;;;;;;4959509;28;19952;-82
2022/07/13 04:01:54;;;;;;;;;;;;;;;;;;4975425;28;20377;-82
2022/07/13 04:04:20;;;;;;;;;;;;;;;;;;4992789;28;20004;-82
2022/07/13 04:06:46;;;;;;;;;;;;;;;;;;4989005;28;19914;-82
2022/07/13 04:09:12;;;;;;;;;;;;;;;;;;4956052;28;19921;-81
2022/07/13 04:11:38;;;;;;;;;;;;;;;;;;4956453;28;20013;-81
2022/07/13 04:14:03;;;;;;;;;;;;;;;;;;4972411;28;19917;-82
2022/07/13 04:16:28;;;;;;;;;;;;;;;;;;4972377;28;19945;-81
2022/07/13 04:18:54;;;;;;;;;;;;;;;;;;4974456;28;19914;-80
2022/07/13 04:21:19;;;;;;;;;;;;;;;;;;4979716;28;19945;-83
2022/07/13 04:23:45;;;;;;;;;;;;;;;;;;4967261;28;19954;-81
2022/07/13 04:26:10;;;;;;;;;;;;;;;;;;4943500;29;19958;-81
2022/07/13 04:28:36;;;;;;;;;;;;;;;;;;4926128;29;19957;-81
2022/07/13 04:31:02;;;;;;;;;;;;;;;;;;4941305;29;19918;-82
2022/07/13 04:33:32;;;;;;;;;;;;;;;;;;4937010;29;19922;-82
2022/07/13 04:35:58;;;;;;;;;;;;;;;;;;4936923;29;20293;-82
2022/07/13 04:38:24;;;;;;;;;;;;;;;;;;4961319;28;20388;-83
2022/07/13 04:40:49;;;;;;;;;;;;;;;;;;4975657;28;19914;-81
2022/07/13 04:43:16;;;;;;;;;;;;;;;;;;4976386;28;19985;-83
2022/07/13 04:45:41;;;;;;;;;;;;;;;;;;4975560;28;20061;-81
2022/07/13 04:48:07;;;;;;;;;;;;;;;;;;4959203;28;19960;-81
2022/07/13 04:50:32;;;;;;;;;;;;;;;;;;4959387;28;19914;-82
2022/07/13 04:52:59;;;;;;;;;;;;;;;;;;4977781;28;19987;-81
2022/07/13 04:55:25;;;;;;;;;;;;;;;;;;4994275;28;20345;-83
2022/07/13 04:57:50;;;;;;;;;;;;;;;;;;4962184;28;19916;-82
2022/07/13 05:00:19;;;;;;;;;;;;;;;;;;4962188;28;20001;-80
2022/07/13 05:02:44;;;;;;;;;;;;;;;;;;4978117;28;19917;-81
2022/07/13 05:05:10;;;;;;;;;;;;;;;;;;4978304;28;19920;-80
2022/07/13 05:07:35;;;;;;;;;;;;;;;;;;4978189;28;19925;-82
2022/07/13 05:10:01;;;;;;;;;;;;;;;;;;4972936;28;19915;-83
2022/07/13 05:12:26;;;;;;;;;;;;;;;;;;4973976;28;20334;-82
2022/07/13 05:14:52;;;;;;;;;;;;;;;;;;4974381;28;19922;-83
2022/07/13 05:17:18;;;;;;;;;;;;;;;;;;4974668;28;19920;-83
2022/07/13 05:19:43;;;;;;;;;;;;;;;;;;4974776;28;20000;-83
2022/07/13 05:22:09;;;;;;;;;;;;;;;;;;4942943;28;20385;-84
2022/07/13 05:24:36;;;;;;;;;;;;;;;;;;4959291;28;19964;-84
2022/07/13 05:27:01;;;;;;;;;;;;;;;;;;4948174;29;20367;-83
2022/07/13 05:29:27;;;;;;;;;;;;;;;;;;4940543;29;19915;-84
2022/07/13 05:31:53;;;;;;;;;;;;;;;;;;4940675;29;19918;-81
2022/07/13 05:34:18;;;;;;;;;;;;;;;;;;4955007;29;19921;-83
2022/07/13 05:36:46;;;;;;;;;;;;;;;;;;4939786;29;20350;-84
2022/07/13 05:39:11;;;;;;;;;;;;;;;;;;4940007;29;19921;-84
2022/07/13 05:41:37;;;;;;;;;;;;;;;;;;4939029;29;19919;-83
2022/07/13 05:44:03;;;;;;;;;;;;;;;;;;4942703;28;19914;-83
2022/07/13 05:46:29;;;;;;;;;;;;;;;;;;4958692;28;19914;-83
2022/07/13 05:48:54;;;;;;;;;;;;;;;;;;4974471;28;20005;-83
2022/07/13 05:51:19;;;;;;;;;;;;;;;;;;4974014;28;19914;-83
2022/07/13 05:53:46;;;;;;;;;;;;;;;;;;4974258;28;20277;-83
2022/07/13 05:56:11;;;;;;;;;;;;;;;;;;4974551;28;19916;-83
2022/07/13 05:58:37;;;;;;;;;;;;;;;;;;4958672;28;19993;-84
2022/07/13 06:01:02;;;;;;;;;;;;;;;;;;4950815;29;20009;-83
2022/07/13 06:03:28;;;;;;;;;;;;;;;;;;4955361;29;19976;-83
2022/07/13 06:05:54;;;;;;;;;;;;;;;;;;4955027;29;20263;-83
2022/07/13 06:08:19;;;;;;;;;;;;;;;;;;4939446;29;19937;-84
2022/07/13 06:10:45;;;;;;;;;;;;;;;;;;4939579;29;20373;-84
2022/07/13 06:13:10;;;;;;;;;;;;;;;;;;4939955;29;20392;-84
2022/07/13 06:15:36;;;;;;;;;;;;;;;;;;4955882;29;20374;-82
2022/07/13 06:18:02;;;;;;;;;;;;;;;;;;4957290;28;19914;-84
2022/07/13 06:20:27;;;;;;;;;;;;;;;;;;4995352;28;19920;-82
2022/07/13 06:23:11;;;;;;;;;;;;;;;;;;4977507;28;19941;-85
2022/07/13 06:25:37;;;;;;;;;;;;;;;;;;4977792;28;19913;-84
2022/07/13 06:28:02;;;;;;;;;;;;;;;;;;4978651;28;19921;-81
2022/07/13 06:30:28;;;;;;;;;;;;;;;;;;4980222;28;20274;-83
2022/07/13 06:32:53;;;;;;;;;;;;;;;;;;4982562;28;19943;-83
2022/07/13 06:35:19;;;;;;;;;;;;;;;;;;4982072;28;19920;-82
2022/07/13 06:37:44;;;;;;;;;;;;;;;;;;4963999;28;19918;-83
2022/07/13 06:40:10;;;;;;;;;;;;;;;;;;4959794;28;20005;-82
2022/07/13 06:42:35;;;;;;;;;;;;;;;;;;4958310;28;19922;-83
2022/07/13 06:45:01;;;;;;;;;;;;;;;;;;4973169;28;19910;-81
2022/07/13 06:47:26;;;;;;;;;;;;;;;;;;4973148;28;19918;-82
2022/07/13 06:49:52;;;;;;;;;;;;;;;;;;4956946;28;19914;-79
2022/07/13 06:52:18;;;;;;;;;;;;;;;;;;4973147;28;19941;-79
2022/07/13 06:54:43;;;;;;;;;;;;;;;;;;4983608;28;19914;-81
2022/07/13 06:57:08;;;;;;;;;;;;;;;;;;4962322;28;20020;-82
2022/07/13 06:59:34;;;;;;;;;;;;;;;;;;4993188;28;20020;-82
2022/07/13 07:01:59;;;;;;;;;;;;;;;;;;4993745;28;19964;-79
2022/07/13 07:04:25;;;;;;;;;;;;;;;;;;4993183;28;19944;-80
2022/07/13 07:06:51;;;;;;;;;;;;;;;;;;4993024;28;19913;-80
2022/07/13 07:09:16;;;;;;;;;;;;;;;;;;4992769;28;19925;-79
2022/07/13 07:11:44;;;;;;;;;;;;;;;;;;4971586;28;19969;-80
2022/07/13 07:14:10;;;;;;;;;;;;;;;;;;4956164;28;19914;-80
2022/07/13 07:16:36;;;;;;;;;;;;;;;;;;4972332;28;20293;-78
2022/07/13 07:19:03;;;;;;;;;;;;;;;;;;4972065;28;19914;-79
2022/07/13 07:21:28;;;;;;;;;;;;;;;;;;4971574;28;20369;-76
2022/07/13 07:23:54;;;;;;;;;;;;;;;;;;4956317;28;19945;-79
2022/07/13 07:26:19;;;;;;;;;;;;;;;;;;4972308;28;19918;-79
2022/07/13 07:28:45;;;;;;;;;;;;;;;;;;4961255;28;19938;-80
2022/07/13 07:31:11;;;;;;;;;;;;;;;;;;4936918;29;19918;-78
2022/07/13 07:33:36;;;;;;;;;;;;;;;;;;4936733;29;19915;-77
2022/07/13 07:36:02;;;;;;;;;;;;;;;;;;4953978;29;20334;-79
2022/07/13 07:38:27;;;;;;;;;;;;;;;;;;4953909;29;19915;-79
2022/07/13 07:40:52;;;;;;;;;;;;;;;;;;4936817;29;20361;-80
2022/07/13 07:43:18;;;;;;;;;;;;;;;;;;4957368;28;19910;-77
2022/07/13 07:45:43;;;;;;;;;;;;;;;;;;4971908;28;19914;-78
2022/07/13 07:48:09;;;;;;;;;;;;;;;;;;4971933;28;19961;-79
2022/07/13 07:50:34;;;;;;;;;;;;;;;;;;4972131;28;20296;-79
2022/07/13 07:53:00;;;;;;;;;;;;;;;;;;4972285;28;19914;-79
2022/07/13 07:55:26;;;;;;;;;;;;;;;;;;4955632;28;20028;-80
2022/07/13 07:57:51;;;;;;;;;;;;;;;;;;4955974;28;20004;-79
2022/07/13 08:00:17;;;;;;;;;;;;;;;;;;4972896;28;20009;-78
2022/07/13 08:02:42;;;;;;;;;;;;;;;;;;4972568;28;20009;-77
2022/07/13 08:05:08;;;;;;;;;;;;;;;;;;4958944;28;19914;-77
2022/07/13 08:07:33;;;;;;;;;;;;;;;;;;4975405;28;20246;-78
2022/07/13 08:09:58;;;;;;;;;;;;;;;;;;4992475;28;19960;-78
2022/07/13 08:12:24;;;;;;;;;;;;;;;;;;4992095;28;20454;-79
2022/07/13 08:14:50;;;;;;;;;;;;;;;;;;4962505;28;19914;-78
2022/07/13 08:17:15;;;;;;;;;;;;;;;;;;4951282;28;20296;-78
2022/07/13 08:19:40;;;;;;;;;;;;;;;;;;4975473;28;19914;-79
2022/07/13 08:22:06;;;;;;;;;;;;;;;;;;4975603;28;19973;-80
2022/07/13 08:24:31;;;;;;;;;;;;;;;;;;4959367;28;19953;-80
2022/07/13 08:26:57;;;;;;;;;;;;;;;;;;4975394;28;20338;-83
2022/07/13 08:29:22;;;;;;;;;;;;;;;;;;4976605;28;19949;-79
2022/07/13 08:31:48;;;;;;;;;;;;;;;;;;4959705;28;20384;-79
2022/07/13 08:39:45;;;;;;;;;;;;;;;;;;4963866;28;20012;-81
2022/07/13 08:42:10;;;;;;;;;;;;;;;;;;4995282;28;19917;-80
2022/07/13 08:44:35;;;;;;;;;;;;;;;;;;4978500;28;19914;-79
2022/07/13 08:47:01;;;;;;;;;;;;;;;;;;4978095;28;19957;-80
2022/07/13 08:49:27;;;;;;;;;;;;;;;;;;4995938;28;19914;-80
2022/07/13 08:51:52;;;;;;;;;;;;;;;;;;4979250;28;19945;-81
2022/07/13 08:54:18;;;;;;;;;;;;;;;;;;4974540;28;19919;-80
2022/07/13 08:56:43;;;;;;;;;;;;;;;;;;4958646;28;19984;-78
2022/07/13 08:59:09;;;;;;;;;;;;;;;;;;4974568;28;20348;-78
2022/07/13 09:01:34;;;;;;;;;;;;;;;;;;4958216;28;19914;-80
2022/07/13 09:04:00;;;;;;;;;;;;;;;;;;4974134;28;19936;-80
2022/07/13 09:06:25;;;;;;;;;;;;;;;;;;4975852;28;19941;-82
2022/07/13 09:08:51;;;;;;;;;;;;;;;;;;4955274;28;19914;-79
2022/07/13 09:11:16;;;;;;;;;;;;;;;;;;4939068;29;19938;-80
2022/07/13 09:13:44;;;;;;;;;;;;;;;;;;4954756;29;19914;-82
2022/07/13 09:16:11;;;;;;;;;;;;;;;;;;4938740;29;20342;-79
2022/07/13 09:18:37;;;;;;;;;;;;;;;;;;4956139;29;19915;-82
2022/07/13 09:21:02;;;;;;;;;;;;;;;;;;4954848;29;19966;-79
2022/07/13 09:23:28;;;;;;;;;;;;;;;;;;4978525;28;19914;-81
2022/07/13 09:28:47;;;;;;;;;;;;;;;;;;4934279;29;19926;-78
2022/07/13 09:31:12;;;;;;;;;;;;;;;;;;4933315;23;19919;-81
2022/07/13 09:33:38;;;;;;;;;;;;;;;;;;4973528;28;19922;-81
2022/07/13 09:36:03;;;;;;;;;;;;;;;;;;4958416;28;20286;-81
2022/07/13 09:38:32;;;;;;;;;;;;;;;;;;4973963;28;19997;-89
2022/07/13 09:40:58;;;;;;;;;;;;;;;;;;4958201;28;19915;-82
2022/07/13 09:46:10;;;;;;;;;;;;;;;;;;4976972;28;19949;-88
2022/07/13 09:48:37;;;;;;;;;;;;;;;;;;4929779;28;19918;-88
2022/07/13 09:51:02;;;;;;;;;;;;;;;;;;4928192;28;19921;-83
2022/07/13 09:53:28;;;;;;;;;;;;;;;;;;4943460;28;19914;-89
2022/07/13 09:55:54;;;;;;;;;;;;;;;;;;4944310;28;19918;-87
2022/07/13 09:58:19;;;;;;;;;;;;;;;;;;4943351;28;19996;-87
2022/07/13 10:00:45;;;;;;;;;;;;;;;;;;4959901;28;19921;-87
2022/07/13 10:03:10;;;;;;;;;;;;;;;;;;4958057;28;19922;-86
2022/07/13 10:05:36;;;;;;;;;;;;;;;;;;4942862;28;20270;-87
2022/07/13 10:08:02;;;;;;;;;;;;;;;;;;4942320;28;20242;-86
2022/07/13 10:10:27;;;;;;;;;;;;;;;;;;4958756;28;19914;-84
2022/07/13 10:12:53;;;;;;;;;;;;;;;;;;4974711;28;19921;-82
2022/07/13 10:15:19;;;;;;;;;;;;;;;;;;4974899;28;19914;-84
2022/07/13 10:17:44;;;;;;;;;;;;;;;;;;4976977;28;19925;-91
2022/07/13 10:20:10;;;;;;;;;;;;;;;;;;4960561;28;19973;-83
2022/07/13 10:22:36;;;;;;;;;;;;;;;;;;4974944;28;19977;-81
2022/07/13 10:25:01;;;;;;;;;;;;;;;;;;4941623;28;19914;-78
2022/07/13 10:27:27;;;;;;;;;;;;;;;;;;4957869;28;19924;-81
2022/07/13 10:29:53;;;;;;;;;;;;;;;;;;4957441;28;19918;-81
2022/07/13 10:32:19;;;;;;;;;;;;;;;;;;4957448;28;19918;-81
2022/07/13 10:34:44;;;;;;;;;;;;;;;;;;4974805;28;19925;-81
2022/07/13 10:37:10;;;;;;;;;;;;;;;;;;4942332;28;19914;-83
2022/07/13 10:39:36;;;;;;;;;;;;;;;;;;4958697;28;19925;-82
2022/07/13 10:42:01;;;;;;;;;;;;;;;;;;4975454;28;19999;-81
2022/07/13 10:44:27;;;;;;;;;;;;;;;;;;4974791;28;20354;-81
2022/07/13 10:46:52;;;;;;;;;;;;;;;;;;4957631;28;20357;-82
2022/07/13 10:49:18;;;;;;;;;;;;;;;;;;4925949;28;19937;-84
2022/07/13 10:51:44;;;;;;;;;;;;;;;;;;4941712;28;19914;-80
2022/07/13 10:54:09;;;;;;;;;;;;;;;;;;4940741;28;19914;-81
2022/07/13 10:56:35;;;;;;;;;;;;;;;;;;4940784;28;19921;-79
2022/07/13 10:59:01;;;;;;;;;;;;;;;;;;4940979;28;20389;-80
2022/07/13 11:01:30;;;;;;;;;;;;;;;;;;4925883;28;19917;-88
2022/07/13 11:03:56;;;;;;;;;;;;;;;;;;4942373;28;19918;-84
2022/07/13 11:06:23;;;;;;;;;;;;;;;;;;4957597;28;20413;-84
2022/07/13 11:08:49;;;;;;;;;;;;;;;;;;4943506;28;19914;-85
2022/07/13 11:11:15;;;;;;;;;;;;;;;;;;4927223;28;19945;-85
2022/07/13 11:13:40;;;;;;;;;;;;;;;;;;4959711;28;20344;-86
2022/07/13 11:16:07;;;;;;;;;;;;;;;;;;4958791;28;19919;-87
2022/07/13 11:18:33;;;;;;;;;;;;;;;;;;4941831;28;19921;-83
2022/07/13 11:20:59;;;;;;;;;;;;;;;;;;4957925;28;19914;-83
2022/07/13 11:26:08;;;;;;;;;;;;;;;;;;4962556;28;20017;-85
2022/07/13 11:28:34;;;;;;;;;;;;;;;;;;4944523;28;19949;-83
2022/07/13 11:30:59;;;;;;;;;;;;;;;;;;4941034;28;19921;-84
2022/07/13 11:33:24;;;;;;;;;;;;;;;;;;4973226;28;19924;-84
2022/07/13 11:35:50;;;;;;;;;;;;;;;;;;4941042;28;19914;-86
2022/07/13 11:38:16;;;;;;;;;;;;;;;;;;4941806;28;20065;-85
2022/07/13 11:40:42;;;;;;;;;;;;;;;;;;4940655;28;20005;-86
2022/07/13 11:43:07;;;;;;;;;;;;;;;;;;4956375;28;20341;-86
2022/07/13 11:45:33;;;;;;;;;;;;;;;;;;4932409;28;20021;-86
2022/07/13 11:47:58;;;;;;;;;;;;;;;;;;4927924;28;19993;-85
2022/07/13 11:50:23;;;;;;;;;;;;;;;;;;4962264;28;19914;-85
2022/07/13 11:52:49;;;;;;;;;;;;;;;;;;4945300;28;19982;-83
2022/07/13 11:55:15;;;;;;;;;;;;;;;;;;4960889;28;20361;-83
2022/07/13 11:57:47;;;;;;;;;;;;;;;;;;4960985;28;20472;-82
2022/07/13 12:00:13;;;;;;;;;;;;;;;;;;4961377;28;19921;-85
2022/07/13 12:02:39;;;;;;;;;;;;;;;;;;4945771;28;19918;-83
2022/07/13 12:05:08;;;;;;;;;;;;;;;;;;4933191;28;19938;-83
2022/07/13 12:07:34;;;;;;;;;;;;;;;;;;4934826;28;19924;-84
2022/07/13 12:09:59;;;;;;;;;;;;;;;;;;4983854;28;19977;-84
2022/07/13 12:12:25;;;;;;;;;;;;;;;;;;4948258;28;19921;-83
2022/07/13 12:14:51;;;;;;;;;;;;;;;;;;4983624;28;19914;-84
2022/07/13 12:17:16;;;;;;;;;;;;;;;;;;4958710;29;20020;-83
2022/07/13 12:19:42;;;;;;;;;;;;;;;;;;4930002;29;20358;-83
2022/07/13 12:22:07;;;;;;;;;;;;;;;;;;4944213;29;20358;-83
2022/07/13 12:24:33;;;;;;;;;;;;;;;;;;4944612;29;19918;-83
2022/07/13 12:26:59;;;;;;;;;;;;;;;;;;4944055;29;19921;-83
2022/07/13 12:29:25;;;;;;;;;;;;;;;;;;4928362;29;19997;-82
2022/07/13 12:31:53;;;;;;;;;;;;;;;;;;4944350;29;19923;-83
2022/07/13 12:34:20;;;;;;;;;;;;;;;;;;4931957;28;20206;-82
2022/07/13 12:36:46;;;;;;;;;;;;;;;;;;4980924;28;19918;-83
2022/07/13 12:39:11;;;;;;;;;;;;;;;;;;4982170;28;19914;-82
2022/07/13 12:41:41;;;;;;;;;;;;;;;;;;4983020;28;19925;-83
2022/07/13 12:44:07;;;;;;;;;;;;;;;;;;4965972;28;19917;-82
2022/07/13 12:46:32;;;;;;;;;;;;;;;;;;4980836;28;19921;-84
2022/07/13 12:48:58;;;;;;;;;;;;;;;;;;4948263;28;19917;-84
2022/07/13 12:51:24;;;;;;;;;;;;;;;;;;4978311;28;19914;-84
2022/07/13 12:53:50;;;;;;;;;;;;;;;;;;4929411;28;19921;-83
2022/07/13 12:56:15;;;;;;;;;;;;;;;;;;4978956;28;19914;-84
2022/07/13 12:58:41;;;;;;;;;;;;;;;;;;4944518;28;19964;-82
2022/07/13 13:01:06;;;;;;;;;;;;;;;;;;4960077;28;19914;-83
2022/07/13 13:03:32;;;;;;;;;;;;;;;;;;4930193;28;20024;-81
2022/07/13 13:05:58;;;;;;;;;;;;;;;;;;4963129;28;19914;-82
2022/07/13 13:08:23;;;;;;;;;;;;;;;;;;4932070;29;19915;-82
2022/07/13 13:10:49;;;;;;;;;;;;;;;;;;4957504;29;19914;-82
2022/07/13 13:13:14;;;;;;;;;;;;;;;;;;4959440;29;19921;-82
2022/07/13 13:15:41;;;;;;;;;;;;;;;;;;4924551;29;19914;-81
2022/07/13 13:18:06;;;;;;;;;;;;;;;;;;4956423;29;19981;-82
2022/07/13 13:20:32;;;;;;;;;;;;;;;;;;4955823;29;19921;-81
2022/07/13 13:22:58;;;;;;;;;;;;;;;;;;4938129;29;19925;-77
2022/07/13 13:25:24;;;;;;;;;;;;;;;;;;4938270;28;19913;-78
2022/07/13 13:27:50;;;;;;;;;;;;;;;;;;4961440;28;19913;-79
2022/07/13 13:33:00;;;;;;;;;;;;;;;;;;4960623;28;20300;-78
2022/07/13 13:35:26;;;;;;;;;;;;;;;;;;4977122;28;19996;-78
2022/07/13 13:37:51;;;;;;;;;;;;;;;;;;4960997;28;19936;-79
2022/07/13 13:40:17;;;;;;;;;;;;;;;;;;4976095;28;19968;-78
2022/07/13 13:42:42;;;;;;;;;;;;;;;;;;4960505;28;19914;-78
2022/07/13 13:45:08;;;;;;;;;;;;;;;;;;4960615;28;20244;-78
2022/07/13 13:47:33;;;;;;;;;;;;;;;;;;4976890;28;20021;-77
2022/07/13 13:49:59;;;;;;;;;;;;;;;;;;4960942;28;19932;-80
2022/07/13 13:52:25;;;;;;;;;;;;;;;;;;4960752;28;20009;-80
2022/07/13 13:54:50;;;;;;;;;;;;;;;;;;4960536;28;20017;-80
2022/07/13 13:57:16;;;;;;;;;;;;;;;;;;4960530;28;20370;-80
2022/07/13 13:59:42;;;;;;;;;;;;;;;;;;4941357;28;19921;-80
2022/07/13 14:02:08;;;;;;;;;;;;;;;;;;4925364;28;19918;-80
2022/07/13 14:04:33;;;;;;;;;;;;;;;;;;4941178;28;19937;-78
2022/07/13 14:06:59;;;;;;;;;;;;;;;;;;4925515;28;19948;-78
2022/07/13 14:09:25;;;;;;;;;;;;;;;;;;4925498;28;19922;-77
2022/07/13 14:11:50;;;;;;;;;;;;;;;;;;4940506;28;19914;-78
2022/07/13 14:14:17;;;;;;;;;;;;;;;;;;4925388;28;19918;-79
2022/07/13 14:16:42;;;;;;;;;;;;;;;;;;4941176;28;19933;-79
2022/07/13 14:19:09;;;;;;;;;;;;;;;;;;4956709;28;20362;-79
2022/07/13 14:21:34;;;;;;;;;;;;;;;;;;4956732;28;19968;-79
2022/07/13 14:23:59;;;;;;;;;;;;;;;;;;4940810;28;19909;-80
2022/07/13 14:26:25;;;;;;;;;;;;;;;;;;4956705;28;19914;-79
2022/07/13 14:28:50;;;;;;;;;;;;;;;;;;4940849;28;20392;-80
2022/07/13 14:31:16;;;;;;;;;;;;;;;;;;4973827;28;20016;-80
2022/07/13 14:33:42;;;;;;;;;;;;;;;;;;4940809;28;19921;-78
2022/07/13 14:36:08;;;;;;;;;;;;;;;;;;4940682;28;19914;-79
2022/07/13 14:38:34;;;;;;;;;;;;;;;;;;4940722;28;20357;-79
2022/07/13 14:41:00;;;;;;;;;;;;;;;;;;4956724;28;19973;-79
2022/07/13 14:43:26;;;;;;;;;;;;;;;;;;4940365;28;20376;-79
2022/07/13 14:45:51;;;;;;;;;;;;;;;;;;4956449;28;19953;-80
2022/07/13 14:48:17;;;;;;;;;;;;;;;;;;4973814;28;20325;-79
2022/07/13 14:50:43;;;;;;;;;;;;;;;;;;4940623;28;20298;-79
2022/07/13 14:53:11;;;;;;;;;;;;;;;;;;4941009;28;19988;-79
2022/07/13 14:55:37;;;;;;;;;;;;;;;;;;4940747;28;20341;-80
2022/07/13 14:58:03;;;;;;;;;;;;;;;;;;4940402;28;19922;-80
2022/07/13 15:00:28;;;;;;;;;;;;;;;;;;4956255;28;19914;-80
2022/07/13 15:02:55;;;;;;;;;;;;;;;;;;4924150;29;19968;-79
2022/07/13 15:05:21;;;;;;;;;;;;;;;;;;4905694;29;19921;-80
2022/07/13 15:07:46;;;;;;;;;;;;;;;;;;4937106;29;19922;-78
2022/07/13 15:10:12;;;;;;;;;;;;;;;;;;4954604;29;20069;-81
2022/07/13 15:12:38;;;;;;;;;;;;;;;;;;4953425;29;19914;-79
2022/07/13 15:15:04;;;;;;;;;;;;;;;;;;4954749;29;19915;-79
2022/07/13 15:17:33;;;;;;;;;;;;;;;;;;4922476;29;19988;-79
2022/07/13 15:20:02;;;;;;;;;;;;;;;;;;4956091;28;20296;-80
2022/07/13 15:22:28;;;;;;;;;;;;;;;;;;4992480;28;19918;-79
2022/07/13 15:24:53;;;;;;;;;;;;;;;;;;4959567;28;19981;-79
2022/07/13 15:27:19;;;;;;;;;;;;;;;;;;4993071;28;19921;-79
2022/07/13 15:29:44;;;;;;;;;;;;;;;;;;4959655;28;19917;-80
2022/07/13 15:32:10;;;;;;;;;;;;;;;;;;4983477;23;19926;-82
2022/07/13 15:34:35;;;;;;;;;;;;;;;;;;4956696;28;19914;-81
2022/07/13 15:37:01;;;;;;;;;;;;;;;;;;4988545;28;20284;-82
2022/07/13 15:39:27;;;;;;;;;;;;;;;;;;4976018;28;20350;-81
2022/07/13 15:41:53;;;;;;;;;;;;;;;;;;4959858;28;19929;-81
2022/07/13 15:44:18;;;;;;;;;;;;;;;;;;4976032;28;19917;-81
2022/07/13 15:46:46;;;;;;;;;;;;;;;;;;4959537;28;20273;-81
2022/07/13 15:49:12;;;;;;;;;;;;;;;;;;4993278;28;19945;-81
2022/07/13 15:51:37;;;;;;;;;;;;;;;;;;4959414;28;20385;-81
2022/07/13 15:54:03;;;;;;;;;;;;;;;;;;4977161;28;20372;-81
2022/07/13 15:56:28;;;;;;;;;;;;;;;;;;4972192;28;19914;-82
2022/07/13 15:59:00;;;;;;;;;;;;;;;;;;4940774;28;20392;-80
2022/07/13 16:01:39;;;;;;;;;;;;;;;;;;4943522;28;19918;-82
2022/07/13 16:04:05;;;;;;;;;;;;;;;;;;4941586;28;20441;-81
2022/07/13 16:06:31;;;;;;;;;;;;;;;;;;4960945;28;20237;-80
2022/07/13 16:08:57;;;;;;;;;;;;;;;;;;4952901;28;19918;-81
2022/07/13 16:11:30;;;;;;;;;;;;;;;;;;4921522;29;19927;-81
2022/07/13 16:13:58;;;;;;;;;;;;;;;;;;4937013;29;19922;-81
2022/07/13 16:16:24;;;;;;;;;;;;;;;;;;4936980;29;20059;-81
2022/07/13 16:18:50;;;;;;;;;;;;;;;;;;4937005;29;19921;-81
2022/07/13 16:21:18;;;;;;;;;;;;;;;;;;4952617;28;19914;-81
2022/07/13 16:23:44;;;;;;;;;;;;;;;;;;4953696;28;19914;-80
2022/07/13 16:26:09;;;;;;;;;;;;;;;;;;4950772;28;19910;-77
2022/07/13 16:28:35;;;;;;;;;;;;;;;;;;4993944;28;19936;-79
2022/07/13 16:31:01;;;;;;;;;;;;;;;;;;4959635;28;20369;-78
2022/07/13 16:33:27;;;;;;;;;;;;;;;;;;4992572;28;19922;-77
2022/07/13 16:35:52;;;;;;;;;;;;;;;;;;4963052;28;19979;-80
2022/07/13 16:38:18;;;;;;;;;;;;;;;;;;4979823;28;19914;-79
2022/07/13 16:40:44;;;;;;;;;;;;;;;;;;4980069;28;19914;-81
2022/07/13 16:43:10;;;;;;;;;;;;;;;;;;4980020;28;19968;-78
2022/07/13 16:45:40;;;;;;;;;;;;;;;;;;4925111;29;19998;-77
2022/07/13 16:48:05;;;;;;;;;;;;;;;;;;4940353;29;19915;-77
2022/07/13 16:50:31;;;;;;;;;;;;;;;;;;4957100;28;19920;-76
2022/07/13 16:52:59;;;;;;;;;;;;;;;;;;4925097;29;19953;-77